RJBT

Details ICAO RJBT (TJH)
Name TAJIMA
Region Japan
Timezone Asia/Tokyo (UTC+9.0)
Plans Departing 5
Arriving 7
Stats Elevation 584 ft / 178 m (AMSL)
Location 35.512853° 134.786996°
Runways 1
Magnetic Variation 7.954° W
Sunrise 2017-12-17 22:05:51 UTC / 2017-12-18 07:05:51 Local
Sunset 2017-12-18 07:51:26 UTC / 2017-12-18 16:51:26 Local
Advertisement - Login to hide

Runways

ID Width Length Bearing (true) Bearing (mag) Surface Threshold Offset Overrun Length
01 98 ft / 30 m 3,946 ft / 1,203 m 2.99° 10.94° Asphalt 0 ft / 0 m 197 ft / 60 m
19 98 ft / 30 m 3,946 ft / 1,203 m 182.99° 190.94° Asphalt 0 ft / 0 m 197 ft / 60 m

Approach Navaids

Runway Type Ident Frequency Range Bearing (true) Bearing (mag) Slope Elevation
01 Localiser ITH 108.55 MHz 18 nm / 33 km 4.32° 12.27° - 572 ft / 174 m (AMSL)
01 DME ITH 108.55 MHz 18 nm / 33 km - - - 572 ft / 174 m (AMSL)

Map

Weather


0- 5 10 15 20 25 30 35+ Temperature / ° C

Clouds and Precipitation
Forecast for 2017-12-18 06:00 UTC. Updated 2 hours ago

Ground ~20,000 ft ~40,000 ft Winds

METAR

RJBT 180700Z 23009KT 200V260 9999 FEW040 SCT060 BKN/// 05/M02 Q1023

TAF

Not found

Frequencies

Unicom 130.80 MHz FLIGHT SVC
Warning: Do not use this data for real-world aviation or navigation. No guarantee of current accuracy is given.